Time;durP1;ratioP1;P1;durP2;ratioP2;P2;SDS_P1;SDS_P2;PMS_P1;PMS_P2;Temp;Humidity;BMP_temperature;BMP_pressure;BME280_temperature;BME280_humidity;BME280_pressure;Samples;Min_cycle;Max_cycle;Signal;HPM_P1;HPM_P2
2022/01/14 00:01:15;;;;;;;80.55;38.67;;;5.70;99.90;;;;;;4938751;28;87542;-39
2022/01/14 00:03:42;;;;;;;79.57;37.13;;;5.70;99.90;;;;;;4938052;28;90128;-36
2022/01/14 00:06:08;;;;;;;71.18;38.50;;;5.70;99.90;;;;;;4938434;28;89760;-39
2022/01/14 00:08:34;;;;;;;69.32;36.92;;;5.80;99.90;;;;;;4938349;28;87660;-37
2022/01/14 00:11:00;;;;;;;69.40;36.40;;;5.80;99.90;;;;;;4938414;28;87548;-38
2022/01/14 00:13:50;;;;;;;68.35;37.53;;;5.80;99.90;;;;;;4938051;28;90102;-39
2022/01/14 00:16:12;;;;;;;73.18;39.05;;;5.80;99.90;;;;;;4938094;28;89852;-37
2022/01/14 00:18:38;;;;;;;76.75;39.85;;;5.80;99.90;;;;;;4938446;28;87565;-38
2022/01/14 00:21:04;;;;;;;82.93;40.65;;;5.80;99.90;;;;;;4937724;28;87459;-37
2022/01/14 00:23:34;;;;;;;76.18;39.30;;;5.80;99.90;;;;;;4937925;28;90348;-35
2022/01/14 00:34:06;;;;;;;72.67;36.63;;;5.80;99.90;;;;;;4937705;28;89988;-39
2022/01/14 00:36:32;;;;;;;53.60;32.33;;;5.90;99.90;;;;;;4937749;28;89671;-38
2022/01/14 00:38:57;;;;;;;60.45;32.38;;;5.90;99.90;;;;;;4937814;28;87639;-35
2022/01/14 00:41:23;;;;;;;60.20;34.70;;;5.90;99.90;;;;;;4937769;28;89374;-36
2022/01/14 00:43:52;;;;;;;72.32;36.53;;;6.00;99.90;;;;;;4937436;28;89869;-36
2022/01/14 00:46:18;;;;;;;60.53;36.20;;;5.90;99.90;;;;;;4937537;28;89903;-40
2022/01/14 00:48:43;;;;;;;66.18;35.30;;;5.90;99.90;;;;;;4937534;28;87883;-35
2022/01/14 00:51:09;;;;;;;54.30;34.78;;;5.90;99.90;;;;;;4937174;28;88974;-37
2022/01/14 00:53:34;;;;;;;59.03;34.22;;;5.90;99.90;;;;;;4937400;28;90542;-37
2022/01/14 00:56:08;;;;;;;43.60;29.15;;;6.00;99.90;;;;;;4937229;28;88900;-36
2022/01/14 01:01:18;;;;;;;40.88;29.95;;;6.00;99.90;;;;;;4937627;28;87611;-38
2022/01/14 01:03:43;;;;;;;42.63;27.67;;;5.90;99.90;;;;;;4937696;28;90175;-36
2022/01/14 01:06:09;;;;;;;54.33;33.35;;;6.00;99.90;;;;;;4937091;28;89342;-37
2022/01/14 01:08:36;;;;;;;53.30;32.92;;;6.00;99.90;;;;;;4937329;28;88610;-36
2022/01/14 01:11:05;;;;;;;49.55;30.63;;;6.00;99.90;;;;;;4937368;28;87991;-38
2022/01/14 01:13:35;;;;;;;45.13;29.52;;;6.00;99.90;;;;;;4937166;28;89329;-37
2022/01/14 01:16:01;;;;;;;49.00;33.97;;;6.00;99.90;;;;;;4936456;28;90408;-35
2022/01/14 01:18:26;;;;;;;39.92;30.05;;;6.00;99.90;;;;;;4937286;28;87496;-40
2022/01/14 01:20:52;;;;;;;49.53;28.80;;;6.00;99.90;;;;;;4937489;28;87663;-35
2022/01/14 01:23:18;;;;;;;38.92;28.90;;;6.10;99.90;;;;;;4936708;28;90345;-41
2022/01/14 01:25:49;;;;;;;42.58;29.48;;;6.10;99.90;;;;;;4936957;28;89821;-38
2022/01/14 01:28:15;;;;;;;53.08;30.85;;;6.10;99.90;;;;;;4936986;28;87751;-35
2022/01/14 01:33:25;;;;;;;48.40;30.17;;;6.10;99.90;;;;;;4937356;28;90297;-35
2022/01/14 01:35:51;;;;;;;47.97;30.50;;;6.10;99.90;;;;;;4937256;28;89513;-38
2022/01/14 01:38:17;;;;;;;49.47;30.40;;;6.10;99.90;;;;;;4936700;28;88778;-33
2022/01/14 01:40:45;;;;;;;46.85;28.10;;;6.00;99.90;;;;;;4937109;28;87651;-34
2022/01/14 01:43:12;;;;;;;47.80;28.90;;;6.10;99.90;;;;;;4936419;28;89863;-34
2022/01/14 01:45:39;;;;;;;48.28;30.25;;;6.20;99.90;;;;;;4936853;28;89723;-41
2022/01/14 01:48:05;;;;;;;45.70;29.00;;;6.10;99.90;;;;;;4936512;28;88723;-35
2022/01/14 01:50:32;;;;;;;48.83;30.35;;;6.10;99.90;;;;;;4936626;28;88133;-39
2022/01/14 01:52:58;;;;;;;41.05;23.52;;;6.10;99.90;;;;;;4936969;28;90335;-33
2022/01/14 01:55:24;;;;;;;48.85;29.42;;;6.10;99.90;;;;;;4936975;28;89798;-39
2022/01/14 01:57:51;;;;;;;53.03;29.50;;;6.10;99.90;;;;;;4937036;28;87473;-38
2022/01/14 02:00:20;;;;;;;38.60;28.75;;;6.10;99.90;;;;;;4936878;28;88089;-35
2022/01/14 02:02:48;;;;;;;52.38;30.63;;;6.10;99.90;;;;;;4936478;28;90310;-37
2022/01/14 02:05:15;;;;;;;49.30;31.20;;;6.10;99.90;;;;;;4936126;28;89794;-36
2022/01/14 02:07:41;;;;;;;43.50;30.20;;;6.10;99.90;;;;;;4937017;28;88810;-32
2022/01/14 02:10:07;;;;;;;41.70;28.40;;;6.10;99.90;;;;;;4936371;28;88538;-36
2022/01/14 02:15:14;;;;;;;40.20;30.00;;;6.00;99.90;;;;;;4896249;28;88363;-35
2022/01/14 02:18:13;;;;;;;43.22;28.63;;;6.00;99.90;;;;;;4897916;28;88745;-40
2022/01/14 02:23:17;;;;;;;43.55;31.00;;;6.00;99.90;;;;;;4897684;28;90125;-40
2022/01/14 02:25:44;;;;;;;45.30;28.23;;;6.00;99.90;;;;;;4897708;28;89534;-37
2022/01/14 02:28:13;;;;;;;44.97;29.60;;;6.00;99.90;;;;;;4897752;28;87915;-33
2022/01/14 02:30:42;;;;;;;49.78;29.63;;;6.00;99.90;;;;;;4898342;28;88219;-41
2022/01/14 02:33:10;;;;;;;43.60;30.70;;;6.00;99.90;;;;;;4897842;28;90216;-39
2022/01/14 02:35:37;;;;;;;47.00;30.05;;;6.00;99.90;;;;;;4897248;28;89734;-37
2022/01/14 02:38:03;;;;;;;47.88;30.60;;;6.00;99.90;;;;;;4897218;28;87500;-38
2022/01/14 02:40:29;;;;;;;47.95;32.17;;;6.00;99.90;;;;;;4896454;28;88624;-35
2022/01/14 02:42:59;;;;;;;47.95;30.27;;;6.00;99.90;;;;;;4897514;28;90083;-37
2022/01/14 02:45:28;;;;;;;46.17;28.77;;;6.00;99.90;;;;;;4897532;28;89542;-37
2022/01/14 02:47:54;;;;;;;44.85;29.90;;;6.00;99.90;;;;;;4897984;28;87607;-34
2022/01/14 02:50:22;;;;;;;51.42;29.63;;;6.00;99.90;;;;;;4897263;28;87668;-38
2022/01/14 02:52:57;;;;;;;46.72;30.98;;;6.00;99.90;;;;;;4897642;28;90381;-36
2022/01/14 02:55:30;;;;;;;50.42;31.35;;;6.00;99.90;;;;;;4897426;28;89500;-40
2022/01/14 02:57:58;;;;;;;49.15;31.95;;;6.00;99.90;;;;;;4897576;28;87998;-36
2022/01/14 03:00:28;;;;;;;50.47;30.07;;;6.00;99.90;;;;;;4897388;28;87517;-37
2022/01/14 03:02:54;;;;;;;46.65;31.85;;;6.00;99.90;;;;;;4897168;28;90284;-34
2022/01/14 03:05:20;;;;;;;54.58;32.25;;;6.00;99.90;;;;;;4897047;28;89283;-38
2022/01/14 03:07:48;;;;;;;52.00;30.85;;;6.00;99.90;;;;;;4897280;28;87540;-40
2022/01/14 03:10:15;;;;;;;47.50;32.13;;;6.00;99.90;;;;;;4897159;28;87695;-40
2022/01/14 03:12:42;;;;;;;59.28;34.50;;;6.00;99.90;;;;;;4896814;28;90327;-36
2022/01/14 03:15:08;;;;;;;56.70;32.70;;;6.00;99.90;;;;;;4897130;28;90023;-36
2022/01/14 03:17:34;;;;;;;53.83;32.20;;;6.00;99.90;;;;;;4897226;28;87634;-35
2022/01/14 03:20:02;;;;;;;50.40;32.85;;;6.00;99.90;;;;;;4897218;28;88702;-35
2022/01/14 03:22:33;;;;;;;50.17;34.50;;;6.00;99.90;;;;;;4897089;28;90319;-40
2022/01/14 03:27:43;;;;;;;50.63;32.03;;;6.00;99.90;;;;;;4897271;28;87573;-34
2022/01/14 03:30:09;;;;;;;59.17;33.55;;;6.10;99.90;;;;;;4896883;28;88284;-37
2022/01/14 03:32:35;;;;;;;63.97;36.28;;;6.10;99.90;;;;;;4896831;28;91897;-38
2022/01/14 03:35:01;;;;;;;59.92;33.88;;;6.10;99.90;;;;;;4896502;28;88566;-37
2022/01/14 03:37:26;;;;;;;56.78;36.95;;;6.00;99.90;;;;;;4896762;28;87698;-38
2022/01/14 03:39:52;;;;;;;58.28;36.92;;;6.10;99.90;;;;;;4899154;28;87747;-36
2022/01/14 03:42:17;;;;;;;55.50;36.13;;;6.10;99.90;;;;;;4899871;28;90335;-35
2022/01/14 03:44:43;;;;;;;57.28;38.97;;;6.10;99.90;;;;;;4899669;28;92840;-34
2022/01/14 03:47:08;;;;;;;60.13;37.60;;;6.10;99.90;;;;;;4900041;28;87524;-33
2022/01/14 03:49:34;;;;;;;59.78;38.08;;;6.10;99.90;;;;;;4900362;28;88604;-38
2022/01/14 03:51:59;;;;;;;65.80;38.28;;;6.10;99.90;;;;;;4900138;28;90442;-36
2022/01/14 03:54:25;;;;;;;49.90;36.53;;;6.00;99.90;;;;;;4899722;28;89708;-37
2022/01/14 03:56:51;;;;;;;53.90;38.60;;;6.00;99.90;;;;;;4900319;28;87572;-34
2022/01/14 03:59:17;;;;;;;60.83;36.25;;;6.00;99.90;;;;;;4899871;28;87631;-36
2022/01/14 04:01:43;;;;;;;61.03;39.72;;;6.00;99.90;;;;;;4899870;28;91037;-40
2022/01/14 04:04:08;;;;;;;55.03;36.10;;;6.10;99.90;;;;;;4899238;28;89318;-35
2022/01/14 04:06:34;;;;;;;50.15;37.72;;;6.00;99.90;;;;;;4900119;28;87539;-38
2022/01/14 04:08:59;;;;;;;54.78;36.80;;;6.00;99.90;;;;;;4899970;28;87499;-35
2022/01/14 04:11:25;;;;;;;52.28;34.67;;;6.10;99.90;;;;;;4900014;28;89262;-39
2022/01/14 04:13:54;;;;;;;52.78;38.00;;;6.10;99.90;;;;;;4899049;28;87952;-42
2022/01/14 04:16:21;;;;;;;54.63;35.10;;;6.00;99.90;;;;;;4899427;28;87584;-38
2022/01/14 04:18:49;;;;;;;51.25;35.05;;;6.00;99.90;;;;;;4899889;28;87651;-37
2022/01/14 04:21:15;;;;;;;;;;;6.00;99.90;;;;;;4882978;28;90518;-35
2022/01/14 04:23:41;;;;;;;50.85;35.17;;;6.00;99.90;;;;;;4901766;28;89410;-33
2022/01/14 04:26:06;;;;;;;57.15;37.28;;;6.00;99.90;;;;;;4897469;28;87444;-36
2022/01/14 04:28:36;;;;;;;59.63;36.13;;;6.00;99.90;;;;;;4899710;28;87585;-35
2022/01/14 04:31:06;;;;;;;51.22;35.42;;;6.00;99.90;;;;;;4899409;28;90349;-35
2022/01/14 04:33:33;;;;;;;61.25;36.75;;;6.00;99.90;;;;;;4899616;28;90170;-39
2022/01/14 04:36:00;;;;;;;53.65;33.58;;;6.00;99.90;;;;;;4899517;28;87943;-39
2022/01/14 04:38:27;;;;;;;55.42;35.05;;;6.00;99.90;;;;;;4899177;28;87503;-34
2022/01/14 04:40:53;;;;;;;51.05;36.10;;;6.00;99.90;;;;;;4899255;28;90204;-33
2022/01/14 04:43:20;;;;;;;51.05;33.60;;;6.00;99.90;;;;;;4898633;28;89405;-38
2022/01/14 04:48:25;;;;;;;49.75;32.33;;;6.00;99.90;;;;;;4898991;28;87593;-38
2022/01/14 04:50:52;;;;;;;62.17;38.53;;;6.00;99.90;;;;;;4898716;28;90109;-37
2022/01/14 04:53:18;;;;;;;51.25;34.90;;;6.00;99.90;;;;;;4898809;28;89069;-34
2022/01/14 04:55:43;;;;;;;50.78;34.70;;;6.00;99.90;;;;;;4899167;28;87735;-37
2022/01/14 04:58:09;;;;;;;52.75;35.67;;;6.00;99.90;;;;;;4899284;28;88124;-37
2022/01/14 05:00:37;;;;;;;61.60;36.50;;;6.00;99.90;;;;;;4898590;28;90182;-37
2022/01/14 05:03:02;;;;;;;52.08;35.90;;;6.00;99.90;;;;;;4898692;28;89780;-36
2022/01/14 05:05:32;;;;;;;58.20;38.45;;;6.00;99.90;;;;;;4898602;28;88008;-35
2022/01/14 05:07:58;;;;;;;53.88;34.92;;;6.00;99.90;;;;;;4881819;28;87623;-35
2022/01/14 05:12:56;;;;;;;61.85;37.35;;;6.00;99.90;;;;;;4898850;28;89678;-36
2022/01/14 05:15:22;;;;;;;44.95;34.55;;;5.90;99.90;;;;;;4898514;28;87638;-33
2022/01/14 05:17:49;;;;;;;51.10;35.63;;;5.90;99.90;;;;;;4899171;28;87796;-35
2022/01/14 05:20:16;;;;;;;48.00;36.83;;;5.90;99.90;;;;;;4898286;28;90667;-39
2022/01/14 05:22:43;;;;;;;49.55;35.20;;;5.90;99.90;;;;;;4898212;28;90086;-38
2022/01/14 05:25:09;;;;;;;46.58;32.72;;;6.00;99.90;;;;;;4898046;28;87647;-33
2022/01/14 05:27:36;;;;;;;51.47;33.85;;;5.90;99.90;;;;;;4899054;28;87672;-38
2022/01/14 05:30:04;;;;;;;51.50;34.95;;;6.00;99.90;;;;;;4898093;28;90555;-35
2022/01/14 05:32:30;;;;;;;54.35;36.13;;;5.90;99.90;;;;;;4898242;28;91368;-41
2022/01/14 05:34:55;;;;;;;47.92;32.88;;;5.90;99.90;;;;;;4898269;28;87477;-38
2022/01/14 05:37:21;;;;;;;50.13;33.78;;;5.80;99.90;;;;;;4898812;28;88059;-33
2022/01/14 05:39:47;;;;;;;48.63;34.40;;;5.80;99.90;;;;;;4898257;28;90588;-35
2022/01/14 05:42:12;;;;;;;53.30;34.95;;;5.80;99.90;;;;;;4898419;28;89468;-39
2022/01/14 05:44:38;;;;;;;46.10;32.65;;;5.80;99.90;;;;;;4898792;28;88230;-40
2022/01/14 05:47:05;;;;;;;49.30;32.55;;;5.90;99.90;;;;;;4898595;28;87504;-37
2022/01/14 05:49:31;;;;;;;49.05;34.45;;;5.90;99.90;;;;;;4897491;28;91265;-36
2022/01/14 05:51:56;;;;;;;46.78;33.05;;;5.90;99.90;;;;;;4898121;28;89591;-36
2022/01/14 05:54:23;;;;;;;50.20;32.55;;;5.80;99.90;;;;;;4898385;28;87520;-41
2022/01/14 05:56:49;;;;;;;53.95;33.78;;;5.80;99.90;;;;;;4898276;28;87827;-41
2022/01/14 05:59:15;;;;;;;50.72;33.58;;;5.80;99.90;;;;;;4897340;28;89254;-39
2022/01/14 06:01:41;;;;;;;44.60;33.78;;;5.80;99.90;;;;;;4897515;28;89691;-32
2022/01/14 06:04:07;;;;;;;51.28;34.88;;;5.80;99.90;;;;;;4898302;28;87555;-36
2022/01/14 06:06:34;;;;;;;55.95;34.03;;;5.70;99.90;;;;;;4897997;28;88213;-36
2022/01/14 06:09:00;;;;;;;52.25;34.78;;;5.80;99.90;;;;;;4898236;28;89072;-35
2022/01/14 06:11:27;;;;;;;54.03;34.10;;;5.80;99.90;;;;;;4897751;28;89689;-36
2022/01/14 06:13:53;;;;;;;44.03;30.92;;;5.80;99.90;;;;;;4897692;28;87624;-36
2022/01/14 06:16:18;;;;;;;45.53;30.38;;;5.80;99.90;;;;;;4897641;28;87641;-36
2022/01/14 06:18:45;;;;;;;49.50;33.78;;;5.90;99.90;;;;;;4897693;28;90270;-36
2022/01/14 06:21:11;;;;;;;42.63;27.05;;;5.80;99.90;;;;;;4897541;28;89726;-36
2022/01/14 06:23:37;;;;;;;43.20;32.70;;;5.80;99.90;;;;;;4897414;28;88898;-36
2022/01/14 06:26:03;;;;;;;49.10;32.83;;;5.80;99.90;;;;;;4897776;28;87687;-37
2022/01/14 06:28:29;;;;;;;49.92;35.17;;;5.70;99.90;;;;;;4897551;28;90175;-33
2022/01/14 06:30:54;;;;;;;49.33;31.88;;;5.70;99.90;;;;;;4897460;28;90385;-37
2022/01/14 06:33:20;;;;;;;52.88;33.05;;;5.70;99.90;;;;;;4897596;28;87603;-39
2022/01/14 06:35:46;;;;;;;43.05;32.45;;;5.80;99.90;;;;;;4897730;28;87704;-36
2022/01/14 06:38:11;;;;;;;45.22;33.65;;;5.70;99.90;;;;;;4897536;28;90397;-45
2022/01/14 06:40:38;;;;;;;52.22;33.45;;;5.70;99.90;;;;;;4897681;28;89736;-35
2022/01/14 06:43:05;;;;;;;44.63;32.00;;;5.70;99.90;;;;;;4897766;28;88219;-35
2022/01/14 06:45:32;;;;;;;47.08;29.67;;;5.70;99.90;;;;;;4897270;28;87656;-34
2022/01/14 06:47:58;;;;;;;50.63;34.92;;;5.70;99.90;;;;;;4897830;28;90369;-33
2022/01/14 06:50:24;;;;;;;39.63;31.88;;;5.70;99.90;;;;;;4895760;28;89707;-35
2022/01/14 06:52:50;;;;;;;52.47;34.20;;;5.70;99.90;;;;;;4897597;28;87595;-39
2022/01/14 06:55:16;;;;;;;53.50;31.25;;;5.70;99.90;;;;;;4896907;28;87739;-36
2022/01/14 06:57:41;;;;;;;48.10;31.60;;;5.70;99.90;;;;;;4897307;28;90110;-39
2022/01/14 07:00:10;;;;;;;48.63;31.50;;;5.70;99.90;;;;;;4897007;28;89424;-33
2022/01/14 07:02:36;;;;;;;45.97;29.92;;;5.70;99.90;;;;;;4896723;28;87531;-39
2022/01/14 07:05:03;;;;;;;54.85;33.15;;;5.70;99.90;;;;;;4897174;28;87821;-41
2022/01/14 07:07:29;;;;;;;41.17;31.35;;;5.70;99.90;;;;;;4897151;28;90021;-37
2022/01/14 07:09:57;;;;;;;44.25;31.38;;;5.70;99.90;;;;;;4897477;28;90234;-36
2022/01/14 07:12:36;;;;;;;44.63;32.20;;;5.70;99.90;;;;;;4897149;28;87622;-33
2022/01/14 07:15:08;;;;;;;39.95;30.83;;;5.70;99.90;;;;;;4899296;28;87761;-40
2022/01/14 07:17:34;;;;;;;48.25;31.10;;;5.70;99.90;;;;;;4900195;28;90384;-38
2022/01/14 07:20:06;;;;;;;40.67;30.75;;;5.70;99.90;;;;;;4900231;28;89720;-34
2022/01/14 07:22:31;;;;;;;41.17;30.45;;;5.70;99.90;;;;;;4900003;28;87977;-35
2022/01/14 07:24:58;;;;;;;48.67;28.55;;;5.70;99.90;;;;;;4900591;28;87664;-35
2022/01/14 07:27:24;;;;;;;38.55;27.67;;;5.70;99.90;;;;;;4898174;28;90662;-37
2022/01/14 07:29:49;;;;;;;40.60;28.45;;;5.70;99.90;;;;;;4900159;28;89690;-38
2022/01/14 07:32:15;;;;;;;47.65;32.45;;;5.70;99.90;;;;;;4899997;28;87543;-40
2022/01/14 07:34:40;;;;;;;42.75;30.80;;;5.70;99.90;;;;;;4899959;28;88145;-35
2022/01/14 07:37:06;;;;;;;46.15;31.80;;;5.80;99.90;;;;;;4900345;28;89863;-38
2022/01/14 07:39:32;;;;;;;44.70;29.85;;;5.70;99.90;;;;;;4899751;28;88670;-34
2022/01/14 07:41:57;;;;;;;49.45;31.38;;;5.70;99.90;;;;;;4916356;28;87571;-35
2022/01/14 07:44:23;;;;;;;40.97;31.38;;;5.80;99.90;;;;;;4919036;28;88117;-40
2022/01/14 07:46:48;;;;;;;35.63;29.27;;;5.80;99.90;;;;;;4919694;28;90459;-34
2022/01/14 07:49:14;;;;;;;46.45;29.83;;;5.80;99.90;;;;;;4919429;28;89633;-39
2022/01/14 07:51:41;;;;;;;43.53;30.50;;;5.80;99.90;;;;;;4882006;28;88888;-33
2022/01/14 07:54:07;;;;;;;44.85;31.90;;;5.80;99.90;;;;;;4919697;28;87866;-40
2022/01/14 07:56:35;;;;;;;43.25;30.23;;;5.80;99.90;;;;;;4918659;28;90375;-35
2022/01/14 07:59:02;;;;;;;42.00;27.88;;;5.70;99.90;;;;;;4919340;28;88814;-34
2022/01/14 08:01:27;;;;;;;40.47;30.33;;;5.70;99.90;;;;;;4918752;28;87719;-34
2022/01/14 08:03:53;;;;;;;43.67;30.48;;;5.80;99.90;;;;;;4919036;28;87599;-38
2022/01/14 08:06:19;;;;;;;38.28;29.83;;;5.70;99.90;;;;;;4910277;28;90234;-40
2022/01/14 08:08:45;;;;;;;34.35;28.40;;;5.80;99.90;;;;;;4907453;28;88567;-32
2022/01/14 08:11:10;;;;;;;45.40;30.50;;;5.80;99.90;;;;;;4907292;28;87519;-34
2022/01/14 08:13:36;;;;;;;41.45;28.10;;;5.80;99.90;;;;;;4910416;28;88153;-35
2022/01/14 08:16:02;;;;;;;42.78;29.95;;;5.90;99.90;;;;;;4910433;28;90157;-40
2022/01/14 08:18:28;;;;;;;45.10;29.45;;;5.80;99.90;;;;;;4917154;28;90334;-35
2022/01/14 08:20:55;;;;;;;42.40;28.60;;;5.80;99.90;;;;;;4908042;28;87681;-34
2022/01/14 08:23:21;;;;;;;42.95;28.25;;;5.80;99.90;;;;;;4906649;28;88037;-35
2022/01/14 08:25:46;;;;;;;35.70;28.17;;;5.80;99.90;;;;;;4898104;28;91349;-40
2022/01/14 08:28:12;;;;;;;35.80;26.58;;;5.90;99.90;;;;;;4853235;28;89664;-38
2022/01/14 08:30:37;;;;;;;35.53;26.17;;;5.90;99.90;;;;;;4877378;28;88745;-36
2022/01/14 08:33:03;;;;;;;39.85;26.50;;;5.90;99.90;;;;;;4877381;28;87942;-37
2022/01/14 08:35:29;;;;;;;35.47;28.33;;;5.90;99.90;;;;;;4876948;28;89218;-36
2022/01/14 08:37:55;;;;;;;32.72;25.67;;;5.90;99.90;;;;;;4877477;28;89945;-38
2022/01/14 08:40:21;;;;;;;36.58;27.05;;;5.90;99.90;;;;;;4876834;28;88032;-35
2022/01/14 08:42:52;;;;;;;44.17;27.60;;;5.90;99.90;;;;;;4877748;28;87733;-42
2022/01/14 08:45:21;;;;;;;36.30;26.50;;;5.90;99.90;;;;;;4877135;28;90548;-43
2022/01/14 08:47:47;;;;;;;42.25;26.50;;;6.00;99.90;;;;;;4877600;28;88420;-38
2022/01/14 08:50:12;;;;;;;37.55;28.48;;;6.00;99.90;;;;;;4876620;28;88265;-42
2022/01/14 08:52:38;;;;;;;38.03;28.83;;;6.00;99.90;;;;;;4876170;28;88909;-34
2022/01/14 08:55:04;;;;;;;38.45;26.27;;;6.00;99.90;;;;;;4875121;28;90158;-37
2022/01/14 08:57:30;;;;;;;35.47;26.65;;;6.00;99.90;;;;;;4899208;28;89496;-37
2022/01/14 08:59:55;;;;;;;48.25;27.02;;;6.10;99.90;;;;;;4903816;28;87798;-34
2022/01/14 09:02:21;;;;;;;38.85;26.70;;;6.10;99.90;;;;;;4900588;28;87934;-38
2022/01/14 09:04:47;;;;;;;41.83;27.10;;;6.10;99.90;;;;;;4895221;28;90702;-35
2022/01/14 09:07:13;;;;;;;41.13;26.90;;;6.10;99.90;;;;;;4895577;28;89606;-38
2022/01/14 09:09:38;;;;;;;35.13;25.48;;;6.10;99.90;;;;;;4895317;28;87689;-40
2022/01/14 09:12:04;;;;;;;40.95;27.90;;;6.10;99.90;;;;;;4895806;28;87657;-35
2022/01/14 09:14:30;;;;;;;51.20;24.83;;;6.10;99.90;;;;;;4894317;28;90349;-36
2022/01/14 09:16:56;;;;;;;38.53;24.52;;;6.20;99.90;;;;;;4892218;28;89685;-36
2022/01/14 09:19:22;;;;;;;39.17;25.50;;;6.20;99.90;;;;;;4895648;28;88597;-33
2022/01/14 09:21:48;;;;;;;45.67;27.02;;;6.20;99.90;;;;;;4895601;28;87796;-36
2022/01/14 09:24:14;;;;;;;43.90;26.23;;;6.30;99.90;;;;;;4894598;28;90052;-38
2022/01/14 09:26:40;;;;;;;35.92;24.35;;;6.30;99.90;;;;;;4894947;28;89579;-40
2022/01/14 09:29:07;;;;;;;30.98;23.38;;;6.30;99.90;;;;;;4895210;28;87787;-39
2022/01/14 09:31:33;;;;;;;30.90;23.25;;;6.30;99.90;;;;;;4884797;28;89877;-35
2022/01/14 09:34:00;;;;;;;26.38;21.17;;;6.30;99.90;;;;;;4886910;28;89990;-34
2022/01/14 09:36:26;;;;;;;33.17;23.27;;;6.40;99.90;;;;;;4892672;28;89701;-37
2022/01/14 09:38:52;;;;;;;35.50;23.95;;;6.40;99.90;;;;;;4895576;28;88279;-39
2022/01/14 09:41:19;;;;;;;32.30;22.10;;;6.50;99.90;;;;;;4895145;28;87600;-36
2022/01/14 09:43:46;;;;;;;29.10;24.92;;;6.50;99.90;;;;;;4895289;28;88877;-35
2022/01/14 09:46:11;;;;;;;32.25;21.77;;;6.50;99.90;;;;;;4895111;28;89641;-40
2022/01/14 09:48:39;;;;;;;33.30;22.83;;;6.50;99.90;;;;;;4895156;28;89419;-36
2022/01/14 09:51:05;;;;;;;26.65;19.63;;;6.60;99.90;;;;;;4895297;28;87680;-37
2022/01/14 09:53:33;;;;;;;36.38;20.58;;;6.60;99.90;;;;;;4894991;28;88895;-35
2022/01/14 09:55:59;;;;;;;35.83;20.83;;;6.60;99.90;;;;;;4894983;28;89695;-40
2022/01/14 09:58:26;;;;;;;28.08;20.35;;;6.70;99.90;;;;;;4895380;28;87969;-36
2022/01/14 10:01:06;;;;;;;24.40;18.63;;;6.70;99.90;;;;;;4894793;28;88163;-42
2022/01/14 10:03:32;;;;;;;24.55;19.02;;;6.70;99.90;;;;;;4894880;28;90069;-40
2022/01/14 10:05:57;;;;;;;36.22;21.38;;;6.80;99.90;;;;;;4844390;28;90053;-36
2022/01/14 10:08:27;;;;;;;24.88;18.25;;;6.80;99.90;;;;;;4932419;28;87631;-41
2022/01/14 10:10:59;;;;;;;32.05;18.92;;;6.80;99.90;;;;;;4933212;28;87574;-36
2022/01/14 10:13:28;;;;;;;29.60;19.67;;;6.90;99.90;;;;;;4933154;28;89478;-33
2022/01/14 10:15:59;;;;;;;25.05;18.08;;;6.90;99.90;;;;;;4931860;28;88596;-34
2022/01/14 10:18:25;;;;;;;28.33;17.58;;;6.90;99.90;;;;;;4933130;28;89204;-37
2022/01/14 10:20:51;;;;;;;23.83;15.18;;;6.90;99.90;;;;;;4933245;28;88063;-38
2022/01/14 10:23:41;;;;;;;29.30;18.17;;;6.90;99.90;;;;;;4932882;28;90214;-43
2022/01/14 10:26:07;;;;;;;19.02;16.70;;;7.00;99.90;;;;;;4932664;28;89963;-38
2022/01/14 10:28:32;;;;;;;25.45;17.15;;;7.00;99.90;;;;;;4932719;28;87945;-36
2022/01/14 10:30:58;;;;;;;21.02;15.60;;;7.10;99.90;;;;;;4932913;28;87620;-38
2022/01/14 10:33:28;;;;;;;21.30;15.75;;;7.10;99.90;;;;;;4933013;28;89328;-36
2022/01/14 10:35:56;;;;;;;24.10;16.95;;;7.10;99.90;;;;;;4931487;28;89555;-39
2022/01/14 10:38:23;;;;;;;;;;;7.20;99.90;;;;;;4899927;28;87851;-38
2022/01/14 10:40:51;;;;;;;22.42;16.10;;;7.30;99.90;;;;;;4934670;28;87624;-37
2022/01/14 10:43:19;;;;;;;;;;;7.20;99.90;;;;;;4933776;28;90201;-42
2022/01/14 10:45:46;;;;;;;23.38;14.98;;;7.30;99.90;;;;;;4934376;28;89682;-39
2022/01/14 10:48:24;;;;;;;21.90;14.07;;;7.30;99.90;;;;;;4934437;28;87582;-38
2022/01/14 10:50:55;;;;;;;20.45;13.57;;;7.30;99.90;;;;;;4933081;28;88360;-37
2022/01/14 10:53:27;;;;;;;19.77;12.75;;;7.30;99.90;;;;;;4047785;28;10000893;-37
2022/01/14 10:56:06;;;;;;;22.10;14.30;;;7.40;99.90;;;;;;4914223;28;87890;-36
2022/01/14 10:58:35;;;;;;;22.13;14.68;;;7.40;99.90;;;;;;4895931;28;90401;-36
2022/01/14 11:01:02;;;;;;;16.77;13.18;;;7.40;99.90;;;;;;4897280;28;89780;-37
2022/01/14 11:03:39;;;;;;;20.98;13.80;;;7.40;99.90;;;;;;4896884;28;88078;-34
2022/01/14 11:06:40;;;;;;;21.02;12.98;;;7.40;99.90;;;;;;4899618;28;87910;-40
2022/01/14 11:09:14;;;;;;;18.55;12.73;;;7.40;99.90;;;;;;4896583;28;90520;-39
2022/01/14 11:11:48;;;;;;;22.08;12.80;;;7.40;99.90;;;;;;4896996;28;89977;-35
2022/01/14 11:14:14;;;;;;;19.75;12.52;;;7.40;99.90;;;;;;4897046;28;87638;-36
2022/01/14 11:16:40;;;;;;;22.75;11.40;;;7.40;99.90;;;;;;4896752;28;88522;-35
2022/01/14 11:19:08;;;;;;;20.35;12.52;;;7.40;99.90;;;;;;4897049;28;90162;-39
2022/01/14 11:24:30;;;;;;;18.10;10.50;;;7.40;99.90;;;;;;4901468;28;87574;-34
2022/01/14 11:27:06;;;;;;;22.85;12.73;;;7.40;99.90;;;;;;4902825;28;88362;-36
2022/01/14 11:29:37;;;;;;;21.67;12.48;;;7.40;99.90;;;;;;4898110;28;88857;-34
2022/01/14 11:32:05;;;;;;;21.40;11.90;;;7.40;99.90;;;;;;4023377;28;10000539;-37
2022/01/14 11:34:31;;;;;;;11.80;10.43;;;7.40;99.90;;;;;;4896364;28;90457;-37
2022/01/14 11:36:59;;;;;;;20.33;9.80;;;7.50;99.90;;;;;;4897087;28;90750;-37
2022/01/14 11:39:30;;;;;;;;;;;7.50;99.90;;;;;;4898034;28;88706;-39
2022/01/14 11:41:59;;;;;;;12.57;9.63;;;7.40;99.90;;;;;;4025726;28;10002445;-34
2022/01/14 11:44:47;;;;;;;19.85;10.05;;;7.50;99.90;;;;;;4897375;28;88537;-37
2022/01/14 11:47:25;;;;;;;11.85;7.85;;;7.40;99.90;;;;;;4897048;28;87959;-34
2022/01/14 11:49:52;;;;;;;17.60;7.70;;;7.40;99.90;;;;;;4897528;28;89990;-34
2022/01/14 11:52:37;;;;;;;13.93;8.55;;;7.40;99.90;;;;;;4897056;28;89753;-36
2022/01/14 11:55:04;;;;;;;17.65;8.68;;;7.40;99.90;;;;;;4897724;28;87512;-36
2022/01/14 11:57:45;;;;;;;14.65;7.97;;;7.50;99.90;;;;;;4897744;28;88894;-39
2022/01/14 12:00:39;;;;;;;13.73;7.35;;;7.50;99.90;;;;;;4897034;28;90387;-38
2022/01/14 12:03:09;;;;;;;12.00;7.22;;;7.50;99.90;;;;;;4881570;28;89732;-37
2022/01/14 12:05:54;;;;;;;17.35;7.80;;;7.50;99.90;;;;;;4916146;28;87559;-36
2022/01/14 12:08:23;;;;;;;17.33;8.30;;;7.50;99.90;;;;;;4916616;28;87504;-35
2022/01/14 12:10:48;;;;;;;9.82;7.82;;;7.60;99.90;;;;;;4916344;28;89514;-37
2022/01/14 12:13:25;;;;;;;12.93;7.20;;;7.50;99.90;;;;;;4915420;28;89678;-40
2022/01/14 12:16:03;;;;;;;12.88;7.50;;;7.50;99.90;;;;;;4912305;28;87633;-38
2022/01/14 12:18:50;;;;;;;16.83;7.25;;;7.60;99.90;;;;;;4914933;28;88084;-37
2022/01/14 12:21:16;;;;;;;12.87;8.17;;;7.60;99.90;;;;;;4916319;28;90568;-42
2022/01/14 12:23:43;;;;;;;13.35;8.00;;;7.50;99.90;;;;;;4916568;28;89383;-40
2022/01/14 12:26:16;;;;;;;10.68;8.02;;;7.50;99.90;;;;;;4914837;28;88617;-38
2022/01/14 12:28:43;;;;;;;17.00;7.32;;;7.60;99.90;;;;;;4916344;28;88192;-39
2022/01/14 12:31:09;;;;;;;8.73;6.60;;;7.60;99.90;;;;;;4916212;28;90910;-35
2022/01/14 12:33:41;;;;;;;12.70;7.40;;;7.60;99.90;;;;;;4915663;28;89260;-40
2022/01/14 12:36:18;;;;;;;15.25;7.85;;;7.50;99.90;;;;;;4916232;28;87656;-40
2022/01/14 12:38:45;;;;;;;14.80;6.65;;;7.60;99.90;;;;;;4915672;28;88500;-41
2022/01/14 12:41:18;;;;;;;15.85;6.97;;;7.60;99.90;;;;;;4916150;28;90185;-39
2022/01/14 12:44:02;;;;;;;19.63;7.53;;;7.60;99.90;;;;;;4915814;28;89728;-37
2022/01/14 12:49:07;;;;;;;15.48;7.53;;;7.60;99.90;;;;;;4916249;28;87646;-33
2022/01/14 12:51:34;;;;;;;15.30;7.25;;;7.60;99.90;;;;;;4915342;28;89727;-37
2022/01/14 12:54:04;;;;;;;8.65;6.57;;;7.60;99.90;;;;;;4915528;28;89752;-37
2022/01/14 12:56:32;;;;;;;13.30;5.85;;;7.60;99.90;;;;;;4915349;28;87690;-39
2022/01/14 12:59:13;;;;;;;16.37;7.70;;;7.60;99.90;;;;;;4916195;28;87636;-40
2022/01/14 13:01:57;;;;;;;18.55;7.50;;;7.60;99.90;;;;;;4915517;28;90751;-38
2022/01/14 13:04:24;;;;;;;24.55;8.07;;;7.60;99.90;;;;;;4915090;28;89859;-37
2022/01/14 13:06:54;;;;;;;19.30;7.82;;;7.50;99.90;;;;;;4915866;28;88570;-37
2022/01/14 13:09:31;;;;;;;16.02;7.50;;;7.60;99.90;;;;;;4916125;28;88621;-34
2022/01/14 13:12:05;;;;;;;12.80;6.93;;;7.60;99.90;;;;;;4914194;28;89114;-34
2022/01/14 13:14:43;;;;;;;11.52;7.15;;;7.60;99.90;;;;;;4914757;28;91645;-35